sensor_id;sensor_type;location;lat;lon;timestamp;pressure;altitude;pressure_sealevel;temperature;humidity
64253;BME280;50592;52.958;-7.470;2023-06-04T00:01:22;101334.53;;;12.44;85.92
64253;BME280;50592;52.958;-7.470;2023-06-04T00:03:48;101328.13;;;12.56;84.88
64253;BME280;50592;52.958;-7.470;2023-06-04T00:06:14;101325.91;;;12.71;83.29
64253;BME280;50592;52.958;-7.470;2023-06-04T00:08:40;101325.81;;;12.83;81.68
64253;BME280;50592;52.958;-7.470;2023-06-04T00:11:06;101329.84;;;12.87;80.86
64253;BME280;50592;52.958;-7.470;2023-06-04T00:13:32;101320.06;;;12.77;81.64
64253;BME280;50592;52.958;-7.470;2023-06-04T00:15:57;101327.19;;;12.87;81.12
64253;BME280;50592;52.958;-7.470;2023-06-04T00:18:23;101329.31;;;12.93;80.26
64253;BME280;50592;52.958;-7.470;2023-06-04T00:20:49;101333.50;;;12.96;79.74
64253;BME280;50592;52.958;-7.470;2023-06-04T00:23:15;101328.06;;;12.97;79.35
64253;BME280;50592;52.958;-7.470;2023-06-04T00:25:41;101328.78;;;12.99;79.15
64253;BME280;50592;52.958;-7.470;2023-06-04T00:28:06;101328.06;;;12.97;79.34
64253;BME280;50592;52.958;-7.470;2023-06-04T00:30:32;101332.09;;;13.01;79.67
64253;BME280;50592;52.958;-7.470;2023-06-04T00:32:59;101329.59;;;13.00;79.68
64253;BME280;50592;52.958;-7.470;2023-06-04T00:35:25;101329.16;;;13.05;78.41
64253;BME280;50592;52.958;-7.470;2023-06-04T00:37:50;101335.75;;;13.00;78.42
64253;BME280;50592;52.958;-7.470;2023-06-04T00:40:16;101325.97;;;12.91;78.82
64253;BME280;50592;52.958;-7.470;2023-06-04T00:42:42;101327.91;;;12.89;79.48
64253;BME280;50592;52.958;-7.470;2023-06-04T00:45:10;101317.72;;;12.84;79.89
64253;BME280;50592;52.958;-7.470;2023-06-04T00:47:36;101316.19;;;12.82;80.38
64253;BME280;50592;52.958;-7.470;2023-06-04T00:50:03;101314.22;;;12.74;81.55
64253;BME280;50592;52.958;-7.470;2023-06-04T00:52:29;101307.91;;;12.65;82.96
64253;BME280;50592;52.958;-7.470;2023-06-04T00:54:55;101316.41;;;12.59;84.00
64253;BME280;50592;52.958;-7.470;2023-06-04T00:57:22;101320.72;;;12.60;84.78
64253;BME280;50592;52.958;-7.470;2023-06-04T00:59:48;101325.47;;;12.56;85.75
64253;BME280;50592;52.958;-7.470;2023-06-04T01:02:17;101313.31;;;12.53;86.01
64253;BME280;50592;52.958;-7.470;2023-06-04T01:07:29;101316.63;;;12.36;87.57
64253;BME280;50592;52.958;-7.470;2023-06-04T01:09:56;101319.78;;;12.30;88.52
64253;BME280;50592;52.958;-7.470;2023-06-04T01:12:22;101314.00;;;12.36;87.73
64253;BME280;50592;52.958;-7.470;2023-06-04T01:14:48;101316.38;;;12.39;86.75
64253;BME280;50592;52.958;-7.470;2023-06-04T01:17:30;101315.53;;;12.38;86.60
64253;BME280;50592;52.958;-7.470;2023-06-04T01:20:25;101322.44;;;12.30;87.49
64253;BME280;50592;52.958;-7.470;2023-06-04T01:25:40;101316.72;;;12.24;87.66
64253;BME280;50592;52.958;-7.470;2023-06-04T01:28:08;101315.03;;;12.23;87.12
64253;BME280;50592;52.958;-7.470;2023-06-04T01:30:39;101317.13;;;12.20;87.54
64253;BME280;50592;52.958;-7.470;2023-06-04T01:33:13;101312.50;;;12.22;88.43
64253;BME280;50592;52.958;-7.470;2023-06-04T01:35:40;101310.66;;;12.12;89.54
64253;BME280;50592;52.958;-7.470;2023-06-04T01:38:06;101310.94;;;12.09;90.34
64253;BME280;50592;52.958;-7.470;2023-06-04T01:40:32;101318.06;;;12.09;91.25
64253;BME280;50592;52.958;-7.470;2023-06-04T01:42:58;101310.47;;;12.04;91.82
64253;BME280;50592;52.958;-7.470;2023-06-04T01:45:26;101313.81;;;12.06;91.51
64253;BME280;50592;52.958;-7.470;2023-06-04T01:47:54;101308.53;;;12.06;91.50
64253;BME280;50592;52.958;-7.470;2023-06-04T01:50:20;101308.91;;;12.01;91.77
64253;BME280;50592;52.958;-7.470;2023-06-04T01:52:46;101307.06;;;11.92;92.72
64253;BME280;50592;52.958;-7.470;2023-06-04T01:55:13;101302.75;;;11.91;93.55
64253;BME280;50592;52.958;-7.470;2023-06-04T01:57:40;101310.16;;;11.97;93.18
64253;BME280;50592;52.958;-7.470;2023-06-04T02:00:08;101308.22;;;11.99;93.31
64253;BME280;50592;52.958;-7.470;2023-06-04T02:02:44;101312.56;;;12.00;92.67
64253;BME280;50592;52.958;-7.470;2023-06-04T02:05:11;101312.56;;;12.00;92.72
64253;BME280;50592;52.958;-7.470;2023-06-04T02:07:39;101312.09;;;11.95;93.19
64253;BME280;50592;52.958;-7.470;2023-06-04T02:10:10;101312.09;;;11.95;93.61
64253;BME280;50592;52.958;-7.470;2023-06-04T02:12:37;101322.63;;;11.85;94.36
64253;BME280;50592;52.958;-7.470;2023-06-04T02:15:04;101314.38;;;11.78;95.57
64253;BME280;50592;52.958;-7.470;2023-06-04T02:17:30;101317.94;;;11.68;96.18
64253;BME280;50592;52.958;-7.470;2023-06-04T02:19:58;101307.59;;;11.64;97.19
64253;BME280;50592;52.958;-7.470;2023-06-04T02:22:25;101312.91;;;11.64;98.05
64253;BME280;50592;52.958;-7.470;2023-06-04T02:24:51;101316.53;;;11.63;97.59
64253;BME280;50592;52.958;-7.470;2023-06-04T02:27:17;101320.41;;;11.59;98.64
64253;BME280;50592;52.958;-7.470;2023-06-04T02:29:43;101319.69;;;11.57;98.89
64253;BME280;50592;52.958;-7.470;2023-06-04T02:32:09;101310.47;;;11.51;99.38
64253;BME280;50592;52.958;-7.470;2023-06-04T02:34:35;101311.69;;;11.47;99.29
64253;BME280;50592;52.958;-7.470;2023-06-04T02:37:02;101315.44;;;11.45;99.44
64253;BME280;50592;52.958;-7.470;2023-06-04T02:39:28;101318.00;;;11.35;100.00
64253;BME280;50592;52.958;-7.470;2023-06-04T02:41:54;101313.22;;;11.28;100.00
64253;BME280;50592;52.958;-7.470;2023-06-04T02:44:20;101311.69;;;11.26;100.00
64253;BME280;50592;52.958;-7.470;2023-06-04T02:46:46;101313.47;;;11.25;100.00
64253;BME280;50592;52.958;-7.470;2023-06-04T02:49:12;101301.91;;;11.26;100.00
64253;BME280;50592;52.958;-7.470;2023-06-04T02:51:43;101312.25;;;11.29;100.00
64253;BME280;50592;52.958;-7.470;2023-06-04T02:54:09;101308.44;;;11.22;100.00
64253;BME280;50592;52.958;-7.470;2023-06-04T02:56:36;101308.44;;;11.22;100.00
64253;BME280;50592;52.958;-7.470;2023-06-04T02:59:03;101310.25;;;11.22;100.00
64253;BME280;50592;52.958;-7.470;2023-06-04T03:01:29;101306.06;;;11.19;100.00
64253;BME280;50592;52.958;-7.470;2023-06-04T03:03:56;101296.66;;;11.15;100.00
64253;BME280;50592;52.958;-7.470;2023-06-04T03:06:23;101301.84;;;11.16;100.00
64253;BME280;50592;52.958;-7.470;2023-06-04T03:08:50;101304.34;;;11.18;100.00
64253;BME280;50592;52.958;-7.470;2023-06-04T03:11:17;101300.75;;;11.19;100.00
64253;BME280;50592;52.958;-7.470;2023-06-04T03:13:44;101295.47;;;11.19;100.00
64253;BME280;50592;52.958;-7.470;2023-06-04T03:16:11;101300.53;;;11.11;100.00
64253;BME280;50592;52.958;-7.470;2023-06-04T03:18:38;101297.31;;;11.07;100.00
64253;BME280;50592;52.958;-7.470;2023-06-04T03:21:04;101293.72;;;11.08;100.00
64253;BME280;50592;52.958;-7.470;2023-06-04T03:23:31;101288.69;;;11.05;100.00
64253;BME280;50592;52.958;-7.470;2023-06-04T03:25:57;101302.28;;;11.00;100.00
64253;BME280;50592;52.958;-7.470;2023-06-04T03:28:23;101300.72;;;10.98;100.00
64253;BME280;50592;52.958;-7.470;2023-06-04T03:30:49;101297.38;;;10.96;100.00
64253;BME280;50592;52.958;-7.470;2023-06-04T03:33:17;101291.81;;;10.99;100.00
64253;BME280;50592;52.958;-7.470;2023-06-04T03:35:43;101290.25;;;10.96;100.00
64253;BME280;50592;52.958;-7.470;2023-06-04T03:38:09;101290.88;;;10.88;100.00
64253;BME280;50592;52.958;-7.470;2023-06-04T03:40:35;101292.81;;;10.86;100.00
64253;BME280;50592;52.958;-7.470;2023-06-04T03:43:02;101288.88;;;10.81;100.00
64253;BME280;50592;52.958;-7.470;2023-06-04T03:45:32;101295.94;;;10.80;100.00
64253;BME280;50592;52.958;-7.470;2023-06-04T03:47:58;101291.75;;;10.77;100.00
64253;BME280;50592;52.958;-7.470;2023-06-04T03:50:24;101296.31;;;10.75;100.00
64253;BME280;50592;52.958;-7.470;2023-06-04T03:52:52;101295.16;;;10.68;100.00
64253;BME280;50592;52.958;-7.470;2023-06-04T03:55:18;101287.25;;;10.57;100.00
64253;BME280;50592;52.958;-7.470;2023-06-04T03:57:46;101298.53;;;10.36;100.00
64253;BME280;50592;52.958;-7.470;2023-06-04T04:00:13;101296.97;;;10.10;100.00
64253;BME280;50592;52.958;-7.470;2023-06-04T04:02:40;101301.56;;;9.97;100.00
64253;BME280;50592;52.958;-7.470;2023-06-04T04:05:08;101299.84;;;9.96;100.00
64253;BME280;50592;52.958;-7.470;2023-06-04T04:07:35;101300.47;;;9.99;100.00
64253;BME280;50592;52.958;-7.470;2023-06-04T04:10:01;101298.56;;;10.01;100.00
64253;BME280;50592;52.958;-7.470;2023-06-04T04:12:29;101295.69;;;10.04;100.00
64253;BME280;50592;52.958;-7.470;2023-06-04T04:14:55;101303.47;;;10.06;100.00
64253;BME280;50592;52.958;-7.470;2023-06-04T04:17:21;101304.19;;;10.08;100.00
64253;BME280;50592;52.958;-7.470;2023-06-04T04:19:46;101307.44;;;10.12;100.00
64253;BME280;50592;52.958;-7.470;2023-06-04T04:22:12;101309.13;;;10.13;100.00
64253;BME280;50592;52.958;-7.470;2023-06-04T04:24:43;101312.47;;;10.15;100.00
64253;BME280;50592;52.958;-7.470;2023-06-04T04:27:10;101313.94;;;10.19;100.00
64253;BME280;50592;52.958;-7.470;2023-06-04T04:29:39;101311.66;;;10.14;100.00
64253;BME280;50592;52.958;-7.470;2023-06-04T04:32:09;101315.22;;;10.13;100.00
64253;BME280;50592;52.958;-7.470;2023-06-04T04:34:38;101309.81;;;10.03;100.00
64253;BME280;50592;52.958;-7.470;2023-06-04T04:37:09;101313.19;;;9.94;100.00
64253;BME280;50592;52.958;-7.470;2023-06-04T04:39:36;101317.88;;;9.90;100.00
64253;BME280;50592;52.958;-7.470;2023-06-04T04:42:03;101323.53;;;9.86;100.00
64253;BME280;50592;52.958;-7.470;2023-06-04T04:44:30;101321.81;;;9.85;100.00
64253;BME280;50592;52.958;-7.470;2023-06-04T04:46:56;101321.94;;;9.83;100.00
64253;BME280;50592;52.958;-7.470;2023-06-04T04:49:22;101322.41;;;9.77;100.00
64253;BME280;50592;52.958;-7.470;2023-06-04T04:51:48;101326.00;;;9.76;100.00
64253;BME280;50592;52.958;-7.470;2023-06-04T04:54:16;101327.69;;;9.77;100.00
64253;BME280;50592;52.958;-7.470;2023-06-04T04:56:42;101321.56;;;9.88;100.00
64253;BME280;50592;52.958;-7.470;2023-06-04T04:59:08;101329.03;;;9.94;100.00
64253;BME280;50592;52.958;-7.470;2023-06-04T05:01:34;101322.56;;;9.98;100.00
64253;BME280;50592;52.958;-7.470;2023-06-04T05:04:01;101320.16;;;10.07;100.00
64253;BME280;50592;52.958;-7.470;2023-06-04T05:06:27;101324.25;;;10.11;100.00
64253;BME280;50592;52.958;-7.470;2023-06-04T05:08:52;101327.63;;;10.13;100.00
64253;BME280;50592;52.958;-7.470;2023-06-04T05:11:19;101325.69;;;10.15;100.00
64253;BME280;50592;52.958;-7.470;2023-06-04T05:13:46;101324.38;;;10.21;100.00
64253;BME280;50592;52.958;-7.470;2023-06-04T05:16:12;101325.81;;;10.25;100.00
64253;BME280;50592;52.958;-7.470;2023-06-04T05:18:41;101324.47;;;10.30;100.00
64253;BME280;50592;52.958;-7.470;2023-06-04T05:21:09;101330.84;;;10.28;100.00
64253;BME280;50592;52.958;-7.470;2023-06-04T05:23:41;101323.91;;;10.27;100.00
64253;BME280;50592;52.958;-7.470;2023-06-04T05:26:08;101328.44;;;10.25;100.00
64253;BME280;50592;52.958;-7.470;2023-06-04T05:28:34;101320.91;;;10.32;100.00
64253;BME280;50592;52.958;-7.470;2023-06-04T05:31:03;101321.94;;;10.40;100.00
64253;BME280;50592;52.958;-7.470;2023-06-04T05:33:32;101322.72;;;10.54;100.00
64253;BME280;50592;52.958;-7.470;2023-06-04T05:36:03;101320.38;;;10.61;100.00
64253;BME280;50592;52.958;-7.470;2023-06-04T05:38:34;101318.97;;;10.68;100.00
64253;BME280;50592;52.958;-7.470;2023-06-04T05:41:05;101316.28;;;10.79;100.00
64253;BME280;50592;52.958;-7.470;2023-06-04T05:43:34;101317.94;;;10.92;100.00
64253;BME280;50592;52.958;-7.470;2023-06-04T05:46:00;101322.34;;;11.03;100.00
64253;BME280;50592;52.958;-7.470;2023-06-04T05:48:26;101319.78;;;11.13;100.00
64253;BME280;50592;52.958;-7.470;2023-06-04T05:50:52;101329.28;;;11.15;100.00
64253;BME280;50592;52.958;-7.470;2023-06-04T05:53:19;101331.28;;;11.23;100.00
64253;BME280;50592;52.958;-7.470;2023-06-04T05:55:46;101333.28;;;11.31;100.00
64253;BME280;50592;52.958;-7.470;2023-06-04T05:58:12;101330.97;;;11.38;100.00
64253;BME280;50592;52.958;-7.470;2023-06-04T06:00:39;101330.81;;;11.51;100.00
64253;BME280;50592;52.958;-7.470;2023-06-04T06:03:05;101338.94;;;11.59;100.00
64253;BME280;50592;52.958;-7.470;2023-06-04T06:05:40;101342.63;;;11.68;100.00
64253;BME280;50592;52.958;-7.470;2023-06-04T06:08:06;101337.66;;;11.75;100.00
64253;BME280;50592;52.958;-7.470;2023-06-04T06:10:32;101348.44;;;11.83;100.00
64253;BME280;50592;52.958;-7.470;2023-06-04T06:12:58;101350.84;;;11.86;100.00
64253;BME280;50592;52.958;-7.470;2023-06-04T06:15:26;101352.63;;;11.86;100.00
64253;BME280;50592;52.958;-7.470;2023-06-04T06:17:53;101356.28;;;11.95;100.00
64253;BME280;50592;52.958;-7.470;2023-06-04T06:20:18;101350.34;;;12.02;100.00
64253;BME280;50592;52.958;-7.470;2023-06-04T06:22:46;101353.06;;;12.12;100.00
64253;BME280;50592;52.958;-7.470;2023-06-04T06:25:12;101342.53;;;12.22;100.00
64253;BME280;50592;52.958;-7.470;2023-06-04T06:27:44;101344.94;;;12.35;100.00
64253;BME280;50592;52.958;-7.470;2023-06-04T06:30:12;101345.53;;;12.39;100.00
64253;BME280;50592;52.958;-7.470;2023-06-04T06:32:38;101342.63;;;12.52;100.00
64253;BME280;50592;52.958;-7.470;2023-06-04T06:35:04;101344.44;;;12.61;100.00
64253;BME280;50592;52.958;-7.470;2023-06-04T06:37:30;101349.94;;;12.70;100.00
64253;BME280;50592;52.958;-7.470;2023-06-04T06:39:56;101351.06;;;12.77;100.00
64253;BME280;50592;52.958;-7.470;2023-06-04T06:42:22;101355.13;;;12.81;100.00
64253;BME280;50592;52.958;-7.470;2023-06-04T06:44:50;101345.22;;;12.83;100.00
64253;BME280;50592;52.958;-7.470;2023-06-04T06:47:16;101343.53;;;12.82;100.00
64253;BME280;50592;52.958;-7.470;2023-06-04T06:49:42;101343.25;;;12.75;100.00
64253;BME280;50592;52.958;-7.470;2023-06-04T06:52:09;101334.31;;;12.76;100.00
64253;BME280;50592;52.958;-7.470;2023-06-04T06:54:35;101338.66;;;12.87;100.00
64253;BME280;50592;52.958;-7.470;2023-06-04T06:57:01;101338.41;;;13.00;100.00
64253;BME280;50592;52.958;-7.470;2023-06-04T06:59:28;101332.94;;;13.02;100.00
64253;BME280;50592;52.958;-7.470;2023-06-04T07:01:54;101331.69;;;13.06;100.00
64253;BME280;50592;52.958;-7.470;2023-06-04T07:04:20;101331.28;;;13.11;100.00
64253;BME280;50592;52.958;-7.470;2023-06-04T07:06:46;101335.06;;;13.18;100.00
64253;BME280;50592;52.958;-7.470;2023-06-04T07:09:12;101333.66;;;13.34;100.00
64253;BME280;50592;52.958;-7.470;2023-06-04T07:11:38;101341.19;;;13.38;100.00
64253;BME280;50592;52.958;-7.470;2023-06-04T07:14:04;101344.13;;;13.45;100.00
64253;BME280;50592;52.958;-7.470;2023-06-04T07:16:30;101340.66;;;13.55;100.00
64253;BME280;50592;52.958;-7.470;2023-06-04T07:18:56;101332.94;;;13.71;100.00
64253;BME280;50592;52.958;-7.470;2023-06-04T07:21:21;101339.13;;;14.00;100.00
64253;BME280;50592;52.958;-7.470;2023-06-04T07:23:52;101343.34;;;14.41;100.00
64253;BME280;50592;52.958;-7.470;2023-06-04T07:26:18;101343.25;;;14.79;100.00
64253;BME280;50592;52.958;-7.470;2023-06-04T07:28:44;101334.78;;;15.11;100.00
64253;BME280;50592;52.958;-7.470;2023-06-04T07:31:10;101344.34;;;15.41;100.00
64253;BME280;50592;52.958;-7.470;2023-06-04T07:33:36;101338.22;;;15.67;100.00
64253;BME280;50592;52.958;-7.470;2023-06-04T07:36:15;101344.66;;;15.82;100.00
64253;BME280;50592;52.958;-7.470;2023-06-04T07:38:42;101345.63;;;15.99;100.00
64253;BME280;50592;52.958;-7.470;2023-06-04T07:41:08;101345.06;;;16.22;100.00
64253;BME280;50592;52.958;-7.470;2023-06-04T07:43:35;101344.47;;;16.37;100.00
64253;BME280;50592;52.958;-7.470;2023-06-04T07:46:04;101350.88;;;16.53;100.00
64253;BME280;50592;52.958;-7.470;2023-06-04T07:48:30;101341.03;;;16.61;100.00
64253;BME280;50592;52.958;-7.470;2023-06-04T07:50:58;101342.72;;;16.63;100.00
64253;BME280;50592;52.958;-7.470;2023-06-04T07:53:23;101354.25;;;16.71;100.00
64253;BME280;50592;52.958;-7.470;2023-06-04T07:55:50;101347.25;;;16.79;100.00
64253;BME280;50592;52.958;-7.470;2023-06-04T07:58:15;101348.59;;;16.83;100.00
64253;BME280;50592;52.958;-7.470;2023-06-04T08:00:42;101341.28;;;16.85;100.00
64253;BME280;50592;52.958;-7.470;2023-06-04T08:03:07;101346.44;;;16.95;100.00
64253;BME280;50592;52.958;-7.470;2023-06-04T08:05:34;101338.47;;;17.03;100.00
64253;BME280;50592;52.958;-7.470;2023-06-04T08:08:00;101343.47;;;17.06;100.00
64253;BME280;50592;52.958;-7.470;2023-06-04T08:10:27;101345.47;;;16.96;100.00
64253;BME280;50592;52.958;-7.470;2023-06-04T08:12:52;101338.44;;;16.95;100.00
64253;BME280;50592;52.958;-7.470;2023-06-04T08:15:18;101343.28;;;16.99;100.00
64253;BME280;50592;52.958;-7.470;2023-06-04T08:17:53;101336.78;;;17.02;100.00
64253;BME280;50592;52.958;-7.470;2023-06-04T08:20:20;101341.81;;;17.05;100.00
64253;BME280;50592;52.958;-7.470;2023-06-04T08:22:58;101350.97;;;17.03;100.00
64253;BME280;50592;52.958;-7.470;2023-06-04T08:25:26;101338.28;;;17.05;100.00
64253;BME280;50592;52.958;-7.470;2023-06-04T08:28:06;101344.34;;;17.15;100.00
64253;BME280;50592;52.958;-7.470;2023-06-04T08:30:52;101341.34;;;17.18;100.00
64253;BME280;50592;52.958;-7.470;2023-06-04T08:33:34;101342.34;;;17.26;100.00
64253;BME280;50592;52.958;-7.470;2023-06-04T08:36:03;101347.53;;;17.35;100.00
64253;BME280;50592;52.958;-7.470;2023-06-04T08:38:29;101344.34;;;17.32;100.00
64253;BME280;50592;52.958;-7.470;2023-06-04T08:40:58;101339.69;;;17.34;100.00
64253;BME280;50592;52.958;-7.470;2023-06-04T08:43:27;101343.84;;;17.45;100.00
64253;BME280;50592;52.958;-7.470;2023-06-04T08:45:59;101339.81;;;17.49;100.00
64253;BME280;50592;52.958;-7.470;2023-06-04T08:48:28;101337.16;;;17.49;100.00
64253;BME280;50592;52.958;-7.470;2023-06-04T08:50:57;101339.50;;;17.52;100.00
64253;BME280;50592;52.958;-7.470;2023-06-04T08:53:25;101339.66;;;17.59;100.00
64253;BME280;50592;52.958;-7.470;2023-06-04T08:55:52;101338.81;;;17.67;100.00
64253;BME280;50592;52.958;-7.470;2023-06-04T08:58:19;101341.47;;;17.67;100.00
64253;BME280;50592;52.958;-7.470;2023-06-04T09:00:45;101338.13;;;17.73;100.00
64253;BME280;50592;52.958;-7.470;2023-06-04T09:03:13;101345.63;;;17.78;100.00
64253;BME280;50592;52.958;-7.470;2023-06-04T09:05:41;101334.13;;;17.69;100.00
64253;BME280;50592;52.958;-7.470;2023-06-04T09:08:14;101332.09;;;17.79;100.00
64253;BME280;50592;52.958;-7.470;2023-06-04T09:10:44;101334.56;;;17.97;100.00
64253;BME280;50592;52.958;-7.470;2023-06-04T09:13:13;101334.53;;;18.14;100.00
64253;BME280;50592;52.958;-7.470;2023-06-04T09:15:40;101333.47;;;18.32;100.00
64253;BME280;50592;52.958;-7.470;2023-06-04T09:18:06;101330.84;;;18.55;100.00
64253;BME280;50592;52.958;-7.470;2023-06-04T09:20:32;101326.06;;;18.74;100.00
64253;BME280;50592;52.958;-7.470;2023-06-04T09:22:58;101323.47;;;18.81;100.00
64253;BME280;50592;52.958;-7.470;2023-06-04T09:25:25;101328.44;;;18.92;100.00
64253;BME280;50592;52.958;-7.470;2023-06-04T09:27:53;101317.66;;;19.01;100.00
64253;BME280;50592;52.958;-7.470;2023-06-04T09:30:22;101323.38;;;18.97;100.00
64253;BME280;50592;52.958;-7.470;2023-06-04T09:32:47;101324.59;;;18.95;100.00
64253;BME280;50592;52.958;-7.470;2023-06-04T09:35:14;101325.03;;;18.99;100.00
64253;BME280;50592;52.958;-7.470;2023-06-04T09:37:41;101317.63;;;19.09;100.00
64253;BME280;50592;52.958;-7.470;2023-06-04T09:40:08;101318.03;;;19.21;100.00
64253;BME280;50592;52.958;-7.470;2023-06-04T09:42:44;101323.94;;;19.40;100.00
64253;BME280;50592;52.958;-7.470;2023-06-04T09:45:11;101322.00;;;19.49;100.00
64253;BME280;50592;52.958;-7.470;2023-06-04T09:47:44;101320.03;;;19.57;100.00
64253;BME280;50592;52.958;-7.470;2023-06-04T09:50:13;101317.00;;;19.61;100.00
64253;BME280;50592;52.958;-7.470;2023-06-04T09:52:39;101322.66;;;19.51;97.82
64253;BME280;50592;52.958;-7.470;2023-06-04T09:55:18;101326.38;;;19.65;95.43
64253;BME280;50592;52.958;-7.470;2023-06-04T09:57:49;101327.09;;;19.74;94.78
64253;BME280;50592;52.958;-7.470;2023-06-04T10:00:17;101325.44;;;19.73;93.48
64253;BME280;50592;52.958;-7.470;2023-06-04T10:02:47;101326.09;;;19.75;91.73
64253;BME280;50592;52.958;-7.470;2023-06-04T10:05:14;101329.50;;;19.83;91.60
64253;BME280;50592;52.958;-7.470;2023-06-04T10:07:45;101324.97;;;19.99;88.50
64253;BME280;50592;52.958;-7.470;2023-06-04T10:10:21;101328.50;;;20.15;82.93
64253;BME280;50592;52.958;-7.470;2023-06-04T10:13:02;101332.88;;;20.16;81.33
64253;BME280;50592;52.958;-7.470;2023-06-04T10:15:30;101329.63;;;20.05;79.97
64253;BME280;50592;52.958;-7.470;2023-06-04T10:18:01;101332.03;;;20.00;77.34
64253;BME280;50592;52.958;-7.470;2023-06-04T10:20:28;101334.72;;;20.00;77.26
64253;BME280;50592;52.958;-7.470;2023-06-04T10:22:54;101334.38;;;20.03;76.40
64253;BME280;50592;52.958;-7.470;2023-06-04T10:25:21;101331.13;;;20.08;72.33
64253;BME280;50592;52.958;-7.470;2023-06-04T10:27:46;101338.50;;;20.21;69.87
64253;BME280;50592;52.958;-7.470;2023-06-04T10:30:13;101334.38;;;20.40;68.47
64253;BME280;50592;52.958;-7.470;2023-06-04T10:32:40;101333.09;;;20.51;67.78
64253;BME280;50592;52.958;-7.470;2023-06-04T10:35:06;101332.81;;;20.46;67.60
64253;BME280;50592;52.958;-7.470;2023-06-04T10:37:33;101345.03;;;20.49;67.70
64253;BME280;50592;52.958;-7.470;2023-06-04T10:39:59;101334.47;;;20.47;67.08
64253;BME280;50592;52.958;-7.470;2023-06-04T10:42:25;101338.09;;;20.54;66.94
64253;BME280;50592;52.958;-7.470;2023-06-04T10:44:53;101342.06;;;20.58;66.77
64253;BME280;50592;52.958;-7.470;2023-06-04T10:47:24;101343.09;;;20.57;67.53
64253;BME280;50592;52.958;-7.470;2023-06-04T10:49:51;101341.16;;;20.51;68.38
64253;BME280;50592;52.958;-7.470;2023-06-04T10:52:17;101344.47;;;20.53;68.51
64253;BME280;50592;52.958;-7.470;2023-06-04T10:54:45;101348.47;;;20.57;68.61
64253;BME280;50592;52.958;-7.470;2023-06-04T10:57:12;101343.31;;;20.63;68.61
64253;BME280;50592;52.958;-7.470;2023-06-04T10:59:38;101331.25;;;20.74;68.74
64253;BME280;50592;52.958;-7.470;2023-06-04T11:02:06;101343.00;;;20.88;68.29
64253;BME280;50592;52.958;-7.470;2023-06-04T11:04:32;101341.88;;;20.82;68.89
64253;BME280;50592;52.958;-7.470;2023-06-04T11:07:07;101338.53;;;20.95;66.67
64253;BME280;50592;52.958;-7.470;2023-06-04T11:09:37;101347.97;;;20.91;66.79
64253;BME280;50592;52.958;-7.470;2023-06-04T11:12:07;101348.50;;;21.01;67.89
64253;BME280;50592;52.958;-7.470;2023-06-04T11:14:32;101341.16;;;21.10;68.33
64253;BME280;50592;52.958;-7.470;2023-06-04T11:17:09;101333.84;;;21.26;66.14
64253;BME280;50592;52.958;-7.470;2023-06-04T11:19:36;101334.72;;;21.33;66.45
64253;BME280;50592;52.958;-7.470;2023-06-04T11:22:02;101332.75;;;21.42;65.08
64253;BME280;50592;52.958;-7.470;2023-06-04T11:24:27;101337.09;;;21.43;65.58
64253;BME280;50592;52.958;-7.470;2023-06-04T11:26:56;101335.91;;;21.52;66.06
64253;BME280;50592;52.958;-7.470;2023-06-04T11:29:25;101336.03;;;21.44;64.61
64253;BME280;50592;52.958;-7.470;2023-06-04T11:31:51;101338.50;;;21.39;65.32
64253;BME280;50592;52.958;-7.470;2023-06-04T11:34:28;101331.31;;;21.46;65.60
64253;BME280;50592;52.958;-7.470;2023-06-04T11:36:54;101328.38;;;21.41;66.44
64253;BME280;50592;52.958;-7.470;2023-06-04T11:39:23;101327.38;;;21.49;65.30
64253;BME280;50592;52.958;-7.470;2023-06-04T11:41:50;101331.19;;;21.61;64.22
64253;BME280;50592;52.958;-7.470;2023-06-04T11:44:19;101327.44;;;21.84;63.62
64253;BME280;50592;52.958;-7.470;2023-06-04T11:46:45;101322.47;;;21.81;61.99
64253;BME280;50592;52.958;-7.470;2023-06-04T11:49:14;101320.25;;;21.91;61.20
64253;BME280;50592;52.958;-7.470;2023-06-04T11:51:51;101323.13;;;21.90;61.50
64253;BME280;50592;52.958;-7.470;2023-06-04T11:54:19;101309.72;;;21.97;61.58
64253;BME280;50592;52.958;-7.470;2023-06-04T11:56:46;101318.41;;;21.99;61.25
64253;BME280;50592;52.958;-7.470;2023-06-04T11:59:16;101319.66;;;21.96;60.40
64253;BME280;50592;52.958;-7.470;2023-06-04T12:01:43;101318.22;;;22.00;60.23
64253;BME280;50592;52.958;-7.470;2023-06-04T12:06:50;101316.28;;;22.36;58.31
64253;BME280;50592;52.958;-7.470;2023-06-04T12:09:21;101320.88;;;22.36;58.67
64253;BME280;50592;52.958;-7.470;2023-06-04T12:11:47;101317.16;;;22.43;60.01
64253;BME280;50592;52.958;-7.470;2023-06-04T12:14:18;101312.00;;;22.55;60.20
64253;BME280;50592;52.958;-7.470;2023-06-04T12:17:01;101320.34;;;22.61;60.21
64253;BME280;50592;52.958;-7.470;2023-06-04T12:19:27;101311.22;;;22.62;58.93
64253;BME280;50592;52.958;-7.470;2023-06-04T12:22:06;101308.16;;;22.78;54.65
64253;BME280;50592;52.958;-7.470;2023-06-04T12:24:34;101308.56;;;22.75;54.29
64253;BME280;50592;52.958;-7.470;2023-06-04T12:27:09;101307.72;;;22.75;52.18
64253;BME280;50592;52.958;-7.470;2023-06-04T12:29:35;101302.75;;;22.78;51.45
64253;BME280;50592;52.958;-7.470;2023-06-04T12:32:08;101311.69;;;22.79;51.22
64253;BME280;50592;52.958;-7.470;2023-06-04T12:34:35;101306.06;;;22.74;50.92
64253;BME280;50592;52.958;-7.470;2023-06-04T12:37:01;101305.03;;;22.82;50.46
64253;BME280;50592;52.958;-7.470;2023-06-04T12:39:29;101308.75;;;22.87;50.33
64253;BME280;50592;52.958;-7.470;2023-06-04T12:41:55;101310.03;;;22.91;49.29
64253;BME280;50592;52.958;-7.470;2023-06-04T12:44:21;101306.50;;;22.91;48.82
64253;BME280;50592;52.958;-7.470;2023-06-04T12:46:47;101308.56;;;22.96;48.39